Time;durP1;ratioP1;P1;durP2;ratioP2;P2;SDS_P1;SDS_P2;PMS_P1;PMS_P2;Temp;Humidity;BMP_temperature;BMP_pressure;BME280_temperature;BME280_humidity;BME280_pressure;Samples;Min_cycle;Max_cycle;Signal;HPM_P1;HPM_P2
2023/06/10 00:00:30;;;;;;;;;;;;;;;15.37;100.00;100152.64;104671;1269;72948;-68
2023/06/10 00:02:57;;;;;;;;;;;;;;;15.42;100.00;100146.90;105098;1267;60284;-62
2023/06/10 00:05:24;;;;;;;;;;;;;;;15.47;100.00;100146.48;104929;1265;61329;-67
2023/06/10 00:07:55;;;;;;;;;;;;;;;15.54;100.00;100140.83;104601;1265;74744;-63
2023/06/10 00:10:23;;;;;;;;;;;;;;;15.60;100.00;100138.19;104726;1264;65391;-74
2023/06/10 00:12:51;;;;;;;;;;;;;;;15.66;100.00;100131.27;104572;1269;71692;-65
2023/06/10 00:15:18;;;;;;;;;;;;;;;15.70;100.00;100131.23;105067;1268;61373;-64
2023/06/10 00:17:45;;;;;;;;;;;;;;;15.73;100.00;100129.39;104658;1267;61167;-73
2023/06/10 00:20:13;;;;;;;;;;;;;;;15.77;100.00;100122.98;104976;1269;75046;-73
2023/06/10 00:22:41;;;;;;;;;;;;;;;15.85;100.00;100122.09;104636;1269;65064;-64
2023/06/10 00:25:09;;;;;;;;;;;;;;;15.90;100.00;100117.13;104724;1271;72687;-64
2023/06/10 00:27:36;;;;;;;;;;;;;;;15.92;100.00;100112.70;105328;1269;59880;-64
2023/06/10 00:30:06;;;;;;;;;;;;;;;15.95;100.00;100113.67;104724;1272;61291;-74
2023/06/10 00:32:35;;;;;;;;;;;;;;;15.97;100.00;100111.02;104647;1268;74530;-74
2023/06/10 00:35:03;;;;;;;;;;;;;;;15.97;100.00;100111.02;104654;1269;67291;-64
2023/06/10 00:37:32;;;;;;;;;;;;;;;15.94;100.00;100106.53;104543;1266;72908;-63
2023/06/10 00:39:59;;;;;;;;;;;;;;;15.88;100.00;100108.42;104795;1269;61273;-73
2023/06/10 00:42:26;;;;;;;;;;;;;;;15.87;100.00;100110.77;104244;1270;61265;-70
2023/06/10 00:44:55;;;;;;;;;;;;;;;15.86;100.00;100112.97;104554;1269;74516;-64
2023/06/10 00:47:22;;;;;;;;;;;;;;;15.84;100.00;100112.88;104648;1267;67715;-62
2023/06/10 00:49:51;;;;;;;;;;;;;;;15.80;100.00;100111.51;104581;1267;72939;-63
2023/06/10 00:52:19;;;;;;;;;;;;;;;15.73;100.00;100111.05;104613;1271;61317;-71
2023/06/10 00:54:46;;;;;;;;;;;;;;;15.67;100.00;100113.60;104524;1265;61188;-63
2023/06/10 00:57:15;;;;;;;;;;;;;;;15.64;100.00;100113.73;104572;1269;74777;-63
2023/06/10 00:59:42;;;;;;;;;;;;;;;15.56;100.00;100114.70;104602;1270;66155;-63
2023/06/10 01:02:09;;;;;;;;;;;;;;;15.53;100.00;100113.92;104967;1265;71262;-72
2023/06/10 01:04:37;;;;;;;;;;;;;;;15.50;100.00;100115.41;104248;1270;61238;-64
2023/06/10 01:07:14;;;;;;;;;;;;;;;15.48;100.00;100114.19;104693;1267;61286;-63
2023/06/10 01:09:41;;;;;;;;;;;;;;;15.45;100.00;100112.10;104426;1268;73773;-64
2023/06/10 01:12:48;;;;;;;;;;;;;;;15.43;100.00;100116.58;104840;1270;66296;-73
2023/06/10 01:15:16;;;;;;;;;;;;;;;15.42;100.00;100115.34;103873;1272;72818;-71
2023/06/10 01:17:57;;;;;;;;;;;;;;;15.42;100.00;100114.45;103941;1274;61390;-63
2023/06/10 01:20:28;;;;;;;;;;;;;;;15.40;100.00;100115.43;104254;1267;61278;-62
2023/06/10 01:22:57;;;;;;;;;;;;;;;15.36;100.00;100115.84;104473;1267;73581;-62
2023/06/10 01:25:28;;;;;;;;;;;;;;;15.33;100.00;100118.97;104650;1270;67392;-63
2023/06/10 01:28:05;;;;;;;;;;;;;;;15.32;100.00;100118.86;104745;1267;70361;-62
2023/06/10 01:30:33;;;;;;;;;;;;;;;15.27;100.00;100118.42;104222;1272;61353;-63
2023/06/10 01:33:00;;;;;;;;;;;;;;;15.24;100.00;100116.77;105071;1266;61277;-73
2023/06/10 01:35:27;;;;;;;;;;;;;;;15.23;100.00;100115.77;104706;1266;73466;-63
2023/06/10 01:37:54;;;;;;;;;;;;;;;15.23;100.00;100115.96;104555;1271;65958;-62
2023/06/10 01:40:22;;;;;;;;;;;;;;;15.23;100.00;100118.96;104507;1267;72744;-63
2023/06/10 01:42:52;;;;;;;;;;;;;;;15.22;100.00;100118.10;104637;1269;61282;-63
2023/06/10 01:45:19;;;;;;;;;;;;;;;15.23;100.00;100118.23;104392;1267;61375;-71
2023/06/10 01:47:46;;;;;;;;;;;;;;;15.24;100.00;100118.67;104546;1270;75105;-63
2023/06/10 01:50:13;;;;;;;;;;;;;;;15.26;100.00;100116.98;104595;1267;67336;-63
2023/06/10 01:52:40;;;;;;;;;;;;;;;15.32;100.00;100119.55;104572;1269;72911;-62
2023/06/10 01:55:06;;;;;;;;;;;;;;;15.42;100.00;100118.11;104462;1267;61335;-73
2023/06/10 01:57:34;;;;;;;;;;;;;;;15.56;100.00;100113.04;105254;1269;61348;-63
2023/06/10 02:00:01;;;;;;;;;;;;;;;15.68;100.00;100104.65;104582;1269;74736;-64
2023/06/10 02:02:28;;;;;;;;;;;;;;;15.80;100.00;100106.36;104594;1264;67090;-62
2023/06/10 02:04:55;;;;;;;;;;;;;;;15.95;100.00;100104.98;104621;1263;72801;-73
2023/06/10 02:07:22;;;;;;;;;;;;;;;16.08;100.00;100106.98;104838;1263;60952;-64
2023/06/10 02:09:49;;;;;;;;;;;;;;;16.17;100.00;100107.23;104769;1269;61219;-64
2023/06/10 02:12:16;;;;;;;;;;;;;;;16.27;100.00;100105.07;104746;1264;74799;-64
2023/06/10 02:14:44;;;;;;;;;;;;;;;16.36;100.00;100102.89;104715;1268;65952;-63
2023/06/10 02:17:12;;;;;;;;;;;;;;;16.44;100.00;100102.23;104684;1264;72864;-72
2023/06/10 02:19:42;;;;;;;;;;;;;;;16.54;100.00;100101.64;105074;1264;61242;-64
2023/06/10 02:22:09;;;;;;;;;;;;;;;16.65;100.00;100100.91;104613;1264;61255;-63
2023/06/10 02:24:37;;;;;;;;;;;;;;;16.75;100.00;100102.39;104580;1267;74419;-63
2023/06/10 02:27:06;;;;;;;;;;;;;;;16.87;100.00;100102.65;104867;1269;65965;-73
2023/06/10 02:29:35;;;;;;;;;;;;;;;17.03;100.00;100097.52;104523;1270;71476;-63
2023/06/10 02:32:02;;;;;;;;;;;;;;;17.21;100.00;100096.27;104569;1271;61344;-63
2023/06/10 02:34:29;;;;;;;;;;;;;;;17.40;100.00;100094.80;104540;1270;61245;-63
2023/06/10 02:36:57;;;;;;;;;;;;;;;17.70;100.00;100094.87;105582;1265;74778;-73
2023/06/10 02:39:24;;;;;;;;;;;;;;;18.11;100.00;100092.94;104876;1268;66141;-62
2023/06/10 02:41:51;;;;;;;;;;;;;;;18.58;100.00;100085.61;104935;1270;71514;-62
2023/06/10 02:44:19;;;;;;;;;;;;;;;19.08;100.00;100079.56;104605;1264;61206;-62
2023/06/10 02:46:46;;;;;;;;;;;;;;;19.54;100.00;100074.19;105090;1267;61367;-61
2023/06/10 02:49:13;;;;;;;;;;;;;;;19.81;100.00;100071.87;104921;1263;74711;-71
2023/06/10 02:51:40;;;;;;;;;;;;;;;19.81;100.00;100070.65;104339;1263;67710;-62
2023/06/10 02:54:07;;;;;;;;;;;;;;;19.68;100.00;100066.86;104515;1270;71507;-63
2023/06/10 02:56:36;;;;;;;;;;;;;;;19.53;100.00;100069.39;104516;1264;61362;-62
2023/06/10 02:59:07;;;;;;;;;;;;;;;19.38;100.00;100069.60;104326;1269;61274;-73
2023/06/10 03:01:36;;;;;;;;;;;;;;;19.27;100.00;100067.96;105042;1263;74470;-72
2023/06/10 03:04:07;;;;;;;;;;;;;;;19.17;100.00;100066.16;104824;1263;68414;-63
2023/06/10 03:06:35;;;;;;;;;;;;;;;19.14;100.00;100068.77;104535;1270;71508;-63
2023/06/10 03:09:15;;;;;;;;;;;;;;;19.19;100.00;100070.05;104314;1271;61243;-63
2023/06/10 03:11:44;;;;;;;;;;;;;;;19.37;100.00;100069.38;104466;1266;61400;-65
2023/06/10 03:14:12;;;;;;;;;;;;;;;19.79;100.00;100063.79;104385;1265;74860;-65
2023/06/10 03:16:40;;;;;;;;;;;;;;;20.33;100.00;100067.71;106456;1265;66361;-73
2023/06/10 03:19:08;;;;;;;;;;;;;;;21.00;100.00;100059.99;104346;1267;72711;-64
2023/06/10 03:21:37;;;;;;;;;;;;;;;21.82;100.00;100055.10;104568;1267;402893;-73
2023/06/10 03:24:05;;;;;;;;;;;;;;;22.44;100.00;100052.90;104763;1271;61175;-62
2023/06/10 03:26:33;;;;;;;;;;;;;;;22.86;100.00;100055.36;104397;1267;73808;-64
2023/06/10 03:28:59;;;;;;;;;;;;;;;23.28;100.00;100051.48;104754;1270;66707;-64
2023/06/10 03:31:26;;;;;;;;;;;;;;;23.79;100.00;100053.50;105034;1265;72768;-72
2023/06/10 03:33:53;;;;;;;;;;;;;;;24.21;100.00;100049.48;104969;1265;61812;-64
2023/06/10 03:36:20;;;;;;;;;;;;;;;24.44;100.00;100046.70;104438;1266;61266;-62
2023/06/10 03:38:47;;;;;;;;;;;;;;;24.63;100.00;100045.79;104551;1269;75743;-62
2023/06/10 03:41:14;;;;;;;;;;;;;;;24.87;100.00;100043.04;104507;1264;65730;-63
2023/06/10 03:43:44;;;;;;;;;;;;;;;25.05;100.00;100044.19;104382;1266;72589;-71
2023/06/10 03:46:12;;;;;;;;;;;;;;;25.18;100.00;100044.71;104693;1271;61336;-64
2023/06/10 03:48:39;;;;;;;;;;;;;;;25.21;100.00;100043.71;104596;1266;61183;-62
2023/06/10 03:51:07;;;;;;;;;;;;;;;25.32;100.00;100040.70;104766;1265;73933;-72
2023/06/10 03:53:34;;;;;;;;;;;;;;;25.39;99.85;100036.43;104439;1267;68201;-62
2023/06/10 03:56:01;;;;;;;;;;;;;;;25.44;99.15;100036.04;104715;1270;72724;-62
2023/06/10 03:58:28;;;;;;;;;;;;;;;25.49;97.88;100039.23;104368;1271;61229;-63
2023/06/10 04:00:56;;;;;;;;;;;;;;;25.52;98.59;100037.48;104479;1266;61395;-63
2023/06/10 04:03:28;;;;;;;;;;;;;;;25.65;100.00;100041.96;104386;1265;73146;-64
2023/06/10 04:05:55;;;;;;;;;;;;;;;26.05;99.48;100037.83;105050;1269;66236;-64
2023/06/10 04:08:25;;;;;;;;;;;;;;;26.51;96.01;100043.23;104417;1267;71697;-62
2023/06/10 04:10:53;;;;;;;;;;;;;;;26.97;89.21;100038.37;104625;1270;61290;-63
2023/06/10 04:13:21;;;;;;;;;;;;;;;27.38;80.33;100034.04;104529;1266;61272;-62
2023/06/10 04:15:56;;;;;;;;;;;;;;;27.90;75.87;100032.64;104644;1265;74801;-63
2023/06/10 04:18:23;;;;;;;;;;;;;;;28.41;69.82;100036.17;104756;1269;67634;-62
2023/06/10 04:20:51;;;;;;;;;;;;;;;28.88;66.37;100039.30;104487;1271;72085;-71
2023/06/10 04:23:18;;;;;;;;;;;;;;;29.39;57.79;100041.58;104470;1266;61285;-66
2023/06/10 04:25:45;;;;;;;;;;;;;;;29.74;53.25;100041.79;104434;1267;61267;-65
2023/06/10 04:28:12;;;;;;;;;;;;;;;29.91;50.43;100041.39;104351;1270;75171;-64
2023/06/10 04:30:41;;;;;;;;;;;;;;;29.79;48.87;100039.09;104616;1266;67241;-64
2023/06/10 04:33:09;;;;;;;;;;;;;;;29.54;50.04;100041.05;104487;1268;71649;-69
2023/06/10 04:35:37;;;;;;;;;;;;;;;29.49;51.47;100041.65;104496;1268;61271;-63
2023/06/10 04:38:04;;;;;;;;;;;;;;;29.56;51.45;100043.15;105008;1265;61197;-65
2023/06/10 04:40:32;;;;;;;;;;;;;;;29.62;49.61;100042.02;104232;1271;74754;-62
2023/06/10 04:42:58;;;;;;;;;;;;;;;29.60;49.36;100042.46;104630;1267;65933;-70
2023/06/10 04:45:26;;;;;;;;;;;;;;;29.62;48.61;100040.58;104411;1271;71406;-63
2023/06/10 04:47:55;;;;;;;;;;;;;;;29.62;48.61;100036.75;104471;1270;61264;-64
2023/06/10 04:50:22;;;;;;;;;;;;;;;29.65;50.74;100032.05;104838;1269;61590;-65
2023/06/10 04:52:50;;;;;;;;;;;;;;;29.85;49.82;100028.91;104618;1267;74467;-67
2023/06/10 04:55:17;;;;;;;;;;;;;;;30.01;48.82;100032.84;104649;1265;68752;-66
2023/06/10 04:57:44;;;;;;;;;;;;;;;30.00;46.93;100033.53;104422;1270;72863;-66
2023/06/10 05:00:11;;;;;;;;;;;;;;;29.94;48.62;100033.02;104948;1265;61363;-67
2023/06/10 05:02:37;;;;;;;;;;;;;;;29.91;47.60;100028.86;104773;1265;61344;-68
2023/06/10 05:05:05;;;;;;;;;;;;;;;29.89;49.76;100024.48;104706;1264;74768;-76
2023/06/10 05:07:33;;;;;;;;;;;;;;;29.78;49.13;100025.25;104583;1265;67243;-65
2023/06/10 05:10:01;;;;;;;;;;;;;;;29.56;50.68;100023.63;104868;1264;73111;-67
2023/06/10 05:12:28;;;;;;;;;;;;;;;29.34;51.52;100025.61;104882;1270;61272;-65
2023/06/10 05:14:55;;;;;;;;;;;;;;;29.17;51.91;100027.98;104571;1266;61361;-67
2023/06/10 05:17:23;;;;;;;;;;;;;;;29.06;53.78;100026.16;104568;1266;74807;-66
2023/06/10 05:19:49;;;;;;;;;;;;;;;29.10;54.61;100028.22;104818;1269;65960;-73
2023/06/10 05:22:17;;;;;;;;;;;;;;;29.20;56.14;100027.36;104535;1265;74364;-65
2023/06/10 05:24:45;;;;;;;;;;;;;;;29.26;57.55;100024.89;104801;1265;61395;-65
2023/06/10 05:27:12;;;;;;;;;;;;;;;29.32;54.58;100025.23;104778;1264;61366;-70
2023/06/10 05:29:39;;;;;;;;;;;;;;;29.39;54.32;100026.21;104837;1265;73199;-73
2023/06/10 05:32:07;;;;;;;;;;;;;;;29.50;53.45;100024.97;104525;1266;65766;-65
2023/06/10 05:34:34;;;;;;;;;;;;;;;29.63;52.69;100025.66;104588;1266;72645;-65
2023/06/10 05:37:01;;;;;;;;;;;;;;;29.80;50.92;100025.02;104639;1271;61255;-64
2023/06/10 05:39:28;;;;;;;;;;;;;;;29.93;48.70;100022.36;104547;1267;61153;-66
2023/06/10 05:41:58;;;;;;;;;;;;;;;30.03;49.02;100016.71;104549;1269;75042;-66
2023/06/10 05:44:25;;;;;;;;;;;;;;;30.32;49.02;100014.40;105090;1265;65774;-65
2023/06/10 05:46:52;;;;;;;;;;;;;;;30.61;47.06;100011.77;105415;1265;72426;-65
2023/06/10 05:49:19;;;;;;;;;;;;;;;30.83;45.85;100012.59;104502;1270;61240;-66
2023/06/10 05:51:46;;;;;;;;;;;;;;;30.93;44.46;100013.44;104947;1264;61357;-71
2023/06/10 05:54:13;;;;;;;;;;;;;;;30.94;42.14;100010.17;104557;1270;75442;-63
2023/06/10 05:56:39;;;;;;;;;;;;;;;30.89;43.75;100013.02;105226;1264;67200;-66
2023/06/10 05:59:06;;;;;;;;;;;;;;;30.86;43.86;100011.48;104959;1266;72737;-66
2023/06/10 06:01:33;;;;;;;;;;;;;;;30.87;44.99;100010.75;104204;1269;61410;-67
2023/06/10 06:04:01;;;;;;;;;;;;;;;30.92;45.36;100008.73;104940;1267;61942;-68
2023/06/10 06:06:27;;;;;;;;;;;;;;;31.14;46.08;100007.50;104373;1265;74724;-64
2023/06/10 06:08:54;;;;;;;;;;;;;;;31.50;45.44;100005.67;105076;1270;67135;-66
2023/06/10 06:11:21;;;;;;;;;;;;;;;31.89;43.74;100004.85;104630;1265;71855;-67
2023/06/10 06:13:48;;;;;;;;;;;;;;;32.16;40.76;100005.71;104526;1269;61114;-66
2023/06/10 06:16:19;;;;;;;;;;;;;;;32.26;40.98;100000.41;104741;1264;61460;-66
2023/06/10 06:18:46;;;;;;;;;;;;;;;32.37;39.59;99998.64;104858;1265;74564;-64
2023/06/10 06:21:13;;;;;;;;;;;;;;;32.46;40.45;99998.80;104853;1265;67181;-66
2023/06/10 06:23:41;;;;;;;;;;;;;;;32.58;39.00;99997.70;104593;1265;73728;-65
2023/06/10 06:26:08;;;;;;;;;;;;;;;32.61;38.84;100001.41;104508;1265;61257;-68
2023/06/10 06:28:35;;;;;;;;;;;;;;;32.52;39.38;99999.90;104576;1265;61287;-66
2023/06/10 06:31:02;;;;;;;;;;;;;;;32.49;39.00;99998.48;104800;1265;75222;-73
2023/06/10 06:33:29;;;;;;;;;;;;;;;32.37;37.95;100001.55;104552;1265;67144;-65
2023/06/10 06:35:56;;;;;;;;;;;;;;;32.19;39.94;99997.88;104751;1265;72738;-64
2023/06/10 06:38:23;;;;;;;;;;;;;;;32.25;39.93;99996.39;104491;1269;61266;-70
2023/06/10 06:40:50;;;;;;;;;;;;;;;32.39;40.56;99996.16;104344;1265;61295;-67
2023/06/10 06:43:18;;;;;;;;;;;;;;;32.46;39.72;99992.64;104907;1265;74735;-66
2023/06/10 06:46:13;;;;;;;;;;;;;;;32.36;38.91;99990.34;104500;1267;65960;-64
2023/06/10 06:48:44;;;;;;;;;;;;;;;32.29;40.11;99990.34;104801;1265;72706;-64
2023/06/10 06:51:11;;;;;;;;;;;;;;;32.24;37.85;99994.27;104685;1265;61350;-67
2023/06/10 06:53:44;;;;;;;;;;;;;;;32.13;37.90;99991.91;104611;1265;61364;-65
2023/06/10 06:56:12;;;;;;;;;;;;;;;32.20;37.95;99991.68;104765;1267;73280;-66
2023/06/10 06:58:38;;;;;;;;;;;;;;;32.29;38.17;99994.18;105421;1265;67249;-66
2023/06/10 07:01:05;;;;;;;;;;;;;;;32.42;38.36;99997.09;105261;1266;74637;-65
2023/06/10 07:03:32;;;;;;;;;;;;;;;32.53;36.03;99990.52;104932;1267;61269;-65
2023/06/10 07:05:59;;;;;;;;;;;;;;;32.52;35.27;99989.36;104811;1265;61276;-71
2023/06/10 07:08:27;;;;;;;;;;;;;;;32.45;36.49;99986.74;104923;1267;73731;-65
2023/06/10 07:10:54;;;;;;;;;;;;;;;32.45;36.18;99984.27;105206;1266;67055;-70
2023/06/10 07:13:22;;;;;;;;;;;;;;;32.45;35.89;99985.49;105199;1265;71624;-65
2023/06/10 07:15:49;;;;;;;;;;;;;;;32.59;37.73;99984.16;104899;1265;61195;-67
2023/06/10 07:18:17;;;;;;;;;;;;;;;32.82;36.47;99983.80;104695;1266;61258;-65
2023/06/10 07:20:45;;;;;;;;;;;;;;;32.93;34.77;99988.23;104862;1269;74674;-67
2023/06/10 07:23:13;;;;;;;;;;;;;;;32.91;33.82;99979.98;104998;1269;67163;-66
2023/06/10 07:25:43;;;;;;;;;;;;;;;32.79;34.56;99978.09;105472;1265;73167;-66
2023/06/10 07:28:10;;;;;;;;;;;;;;;32.77;34.58;99979.39;104864;1270;61345;-64
2023/06/10 07:30:38;;;;;;;;;;;;;;;32.71;35.84;99976.83;104842;1265;61130;-65
2023/06/10 07:33:07;;;;;;;;;;;;;;;32.78;36.86;99981.84;105091;1265;74747;-66
2023/06/10 07:35:34;;;;;;;;;;;;;;;32.90;37.12;99980.02;104819;1265;67873;-65
2023/06/10 07:38:01;;;;;;;;;;;;;;;32.96;33.78;99974.15;104794;1265;62924;-66
2023/06/10 07:40:28;;;;;;;;;;;;;;;33.04;34.00;99974.09;105180;1265;62948;-65
2023/06/10 07:42:55;;;;;;;;;;;;;;;33.21;34.06;99966.85;105056;1265;60047;-66
2023/06/10 07:45:22;;;;;;;;;;;;;;;33.37;34.06;99966.54;104895;1270;74616;-67
2023/06/10 07:47:49;;;;;;;;;;;;;;;33.54;34.08;99967.27;104896;1270;65834;-67
2023/06/10 07:50:16;;;;;;;;;;;;;;;33.62;32.89;99969.11;105138;1264;71346;-70
2023/06/10 07:52:43;;;;;;;;;;;;;;;33.69;32.74;99967.73;104799;1265;61262;-65
2023/06/10 07:55:10;;;;;;;;;;;;;;;33.73;31.93;99964.38;105403;1264;61275;-69
2023/06/10 07:57:38;;;;;;;;;;;;;;;33.69;31.90;99963.48;104729;1265;73570;-66
2023/06/10 08:00:06;;;;;;;;;;;;;;;33.49;31.68;99963.35;105124;1264;61144;-70
2023/06/10 08:02:42;;;;;;;;;;;;;;;33.22;31.43;99966.87;105186;1265;63937;-65
2023/06/10 08:05:09;;;;;;;;;;;;;;;32.87;31.40;99968.23;105027;1265;61461;-67
2023/06/10 08:07:37;;;;;;;;;;;;;;;32.52;31.79;99970.31;104804;1267;61367;-66
2023/06/10 08:10:04;;;;;;;;;;;;;;;32.15;31.35;99971.17;104702;1270;74391;-69
2023/06/10 08:12:32;;;;;;;;;;;;;;;31.82;31.60;99966.63;105229;1269;65913;-66
2023/06/10 08:15:00;;;;;;;;;;;;;;;31.53;31.84;99968.60;105130;1266;73012;-67
2023/06/10 08:17:26;;;;;;;;;;;;;;;31.34;32.23;99970.21;105056;1264;61240;-68
2023/06/10 08:19:53;;;;;;;;;;;;;;;31.27;31.87;99971.88;104823;1265;61266;-66
2023/06/10 08:22:21;;;;;;;;;;;;;;;31.22;32.18;99969.02;104940;1269;74712;-71
2023/06/10 08:24:47;;;;;;;;;;;;;;;31.22;32.00;99963.46;105116;1264;65986;-69
2023/06/10 08:27:15;;;;;;;;;;;;;;;31.24;33.05;99967.77;105135;1270;72756;-65
2023/06/10 08:29:42;;;;;;;;;;;;;;;31.33;32.94;99960.20;104912;1265;61252;-67
2023/06/10 08:32:09;;;;;;;;;;;;;;;31.47;33.56;99965.03;105184;1264;61164;-73
2023/06/10 08:34:36;;;;;;;;;;;;;;;31.60;32.27;99959.24;104948;1268;74724;-66
2023/06/10 08:37:03;;;;;;;;;;;;;;;31.55;31.60;99956.76;105140;1265;66915;-71
2023/06/10 08:39:31;;;;;;;;;;;;;;;31.43;32.20;99956.11;104902;1265;71535;-65
2023/06/10 08:41:58;;;;;;;;;;;;;;;31.37;33.00;99954.73;104846;1265;61341;-68
2023/06/10 08:44:28;;;;;;;;;;;;;;;31.31;32.76;99954.48;105209;1264;61286;-68
2023/06/10 08:47:01;;;;;;;;;;;;;;;31.20;32.72;99954.55;104825;1269;75173;-67
2023/06/10 08:49:30;;;;;;;;;;;;;;;31.10;33.56;99954.63;105076;1264;67204;-67
2023/06/10 08:51:58;;;;;;;;;;;;;;;31.01;33.80;99950.98;104852;1265;72709;-68
2023/06/10 08:54:25;;;;;;;;;;;;;;;30.98;35.79;99948.96;105225;1265;61360;-67
2023/06/10 08:56:53;;;;;;;;;;;;;;;31.10;33.69;99952.40;104966;1265;61168;-67
2023/06/10 08:59:20;;;;;;;;;;;;;;;31.09;33.86;99947.75;104860;1265;75984;-65
2023/06/10 09:01:47;;;;;;;;;;;;;;;31.02;33.25;99948.66;104793;1265;66080;-66
2023/06/10 09:04:14;;;;;;;;;;;;;;;30.97;33.97;99944.23;105096;1265;72683;-67
2023/06/10 09:06:42;;;;;;;;;;;;;;;30.97;33.91;99942.55;105646;1264;61254;-71
2023/06/10 09:09:09;;;;;;;;;;;;;;;31.06;33.08;99941.86;105030;1267;60473;-66
2023/06/10 09:11:37;;;;;;;;;;;;;;;31.05;32.97;99939.68;104802;1267;75142;-65
2023/06/10 09:14:04;;;;;;;;;;;;;;;30.98;32.22;99941.98;104843;1271;65732;-67
2023/06/10 09:16:31;;;;;;;;;;;;;;;30.83;31.25;99940.54;105058;1265;73438;-65
2023/06/10 09:18:58;;;;;;;;;;;;;;;30.61;31.78;99939.89;105107;1264;61235;-72
2023/06/10 09:21:25;;;;;;;;;;;;;;;30.47;32.31;99945.05;104679;1270;61208;-66
2023/06/10 09:23:52;;;;;;;;;;;;;;;30.38;32.23;99940.45;105026;1265;75163;-66
2023/06/10 09:26:20;;;;;;;;;;;;;;;30.37;33.00;99940.95;104820;1265;66121;-66
2023/06/10 09:28:47;;;;;;;;;;;;;;;30.46;33.27;99940.45;105317;1265;72990;-67
2023/06/10 09:31:18;;;;;;;;;;;;;;;30.53;32.76;99935.67;105131;1265;61215;-72
2023/06/10 09:33:45;;;;;;;;;;;;;;;30.61;32.35;99936.66;104981;1269;61275;-64
2023/06/10 09:36:23;;;;;;;;;;;;;;;30.61;31.21;99942.29;104902;1265;73290;-66
2023/06/10 09:38:53;;;;;;;;;;;;;;;30.50;32.44;99929.86;104620;1269;65778;-73
2023/06/10 09:41:21;;;;;;;;;;;;;;;30.59;33.02;99929.89;104682;1270;71820;-66
2023/06/10 09:43:49;;;;;;;;;;;;;;;30.68;32.72;99930.33;104948;1267;61345;-66
2023/06/10 09:46:19;;;;;;;;;;;;;;;30.73;32.82;99926.48;104954;1265;61211;-65
2023/06/10 09:48:47;;;;;;;;;;;;;;;30.82;32.61;99926.18;104921;1270;74681;-75
2023/06/10 09:51:16;;;;;;;;;;;;;;;30.95;33.19;99922.48;105107;1269;65714;-72
2023/06/10 09:53:47;;;;;;;;;;;;;;;31.15;32.80;99924.83;104544;1265;71805;-64
2023/06/10 09:56:14;;;;;;;;;;;;;;;31.43;33.02;99922.25;104595;1266;61377;-65
2023/06/10 09:58:43;;;;;;;;;;;;;;;31.60;30.30;99919.14;104781;1267;61916;-69
2023/06/10 10:01:10;;;;;;;;;;;;;;;31.58;29.65;99916.54;104453;1265;75530;-73
2023/06/10 10:03:44;;;;;;;;;;;;;;;31.53;29.93;99917.67;104739;1265;66778;-65
2023/06/10 10:06:11;;;;;;;;;;;;;;;31.54;29.71;99913.38;104579;1265;73026;-66
2023/06/10 10:08:39;;;;;;;;;;;;;;;31.53;29.75;99917.35;105060;1267;61156;-73
2023/06/10 10:11:06;;;;;;;;;;;;;;;31.45;29.29;99912.85;104946;1270;61339;-68
2023/06/10 10:13:34;;;;;;;;;;;;;;;31.41;29.89;99909.48;104320;1270;75396;-67
2023/06/10 10:16:11;;;;;;;;;;;;;;;31.42;29.69;99908.25;104517;1269;66456;-64
2023/06/10 10:18:39;;;;;;;;;;;;;;;31.34;30.55;99907.00;104433;1269;71447;-63
2023/06/10 10:21:12;;;;;;;;;;;;;;;31.29;30.04;99905.33;104884;1266;61192;-65
2023/06/10 10:23:42;;;;;;;;;;;;;;;31.22;30.25;99904.44;104573;1265;61241;-67
2023/06/10 10:26:09;;;;;;;;;;;;;;;31.18;31.02;99899.75;104538;1270;73503;-66
2023/06/10 10:28:41;;;;;;;;;;;;;;;31.22;30.93;99894.77;104674;1265;67025;-65
2023/06/10 10:31:11;;;;;;;;;;;;;;;31.38;31.64;99895.98;104897;1265;72992;-68
2023/06/10 10:33:41;;;;;;;;;;;;;;;31.53;30.68;99898.73;104475;1265;61244;-66
2023/06/10 10:36:08;;;;;;;;;;;;;;;31.65;30.19;99893.89;104518;1265;61193;-67
2023/06/10 10:38:35;;;;;;;;;;;;;;;31.82;30.56;99892.23;104796;1264;74687;-69
2023/06/10 10:41:02;;;;;;;;;;;;;;;32.08;30.62;99891.81;104556;1265;67131;-67
2023/06/10 10:43:30;;;;;;;;;;;;;;;32.33;30.04;99891.29;104550;1265;71174;-68
2023/06/10 10:45:58;;;;;;;;;;;;;;;32.51;29.74;99887.63;104575;1270;61357;-67
2023/06/10 10:48:25;;;;;;;;;;;;;;;32.64;29.37;99884.11;104579;1265;61370;-67
2023/06/10 10:50:58;;;;;;;;;;;;;;;32.74;29.56;99887.77;104558;1265;73975;-69
2023/06/10 10:53:25;;;;;;;;;;;;;;;32.73;27.53;99882.36;104642;1270;66509;-67
2023/06/10 10:56:19;;;;;;;;;;;;;;;32.62;27.77;99888.21;104543;1265;71242;-66
2023/06/10 10:59:05;;;;;;;;;;;;;;;32.45;26.49;99889.14;104454;1270;62008;-66
2023/06/10 11:01:41;;;;;;;;;;;;;;;32.28;27.62;99882.41;104687;1269;61135;-67
2023/06/10 11:04:10;;;;;;;;;;;;;;;32.24;27.62;99882.61;104813;1265;73538;-70
2023/06/10 11:06:39;;;;;;;;;;;;;;;32.17;27.54;99884.41;104508;1270;67487;-69
2023/06/10 11:09:41;;;;;;;;;;;;;;;32.07;27.70;99883.30;104106;1271;71471;-65
2023/06/10 11:12:09;;;;;;;;;;;;;;;32.01;27.94;99879.85;103540;1274;61570;-68
2023/06/10 11:14:38;;;;;;;;;;;;;;;31.97;28.24;99874.25;104901;1265;61266;-66
2023/06/10 11:17:05;;;;;;;;;;;;;;;31.91;27.51;99869.16;104597;1267;74754;-68
2023/06/10 11:19:34;;;;;;;;;;;;;;;31.79;28.02;99876.65;104459;1265;67214;-67
2023/06/10 11:22:01;;;;;;;;;;;;;;;31.60;28.05;99871.70;104618;1265;73390;-67
2023/06/10 11:24:29;;;;;;;;;;;;;;;31.34;28.13;99873.27;104769;1270;61266;-71
2023/06/10 11:27:14;;;;;;;;;;;;;;;31.08;28.05;99872.58;104635;1269;60162;-67
2023/06/10 11:29:54;;;;;;;;;;;;;;;30.81;28.32;99875.47;104651;1264;75331;-66
2023/06/10 11:32:21;;;;;;;;;;;;;;;30.57;29.54;99866.55;104452;1269;65770;-66
2023/06/10 11:34:54;;;;;;;;;;;;;;;30.45;29.73;99865.11;104604;1270;71987;-65
2023/06/10 11:37:21;;;;;;;;;;;;;;;30.26;29.59;99869.92;104863;1270;61252;-68
2023/06/10 11:39:55;;;;;;;;;;;;;;;30.13;30.41;99863.29;104591;1265;61353;-66
2023/06/10 11:42:22;;;;;;;;;;;;;;;30.13;30.90;99870.58;104537;1271;74774;-66
2023/06/10 11:44:52;;;;;;;;;;;;;;;30.12;31.19;99865.68;104634;1265;67261;-68
2023/06/10 11:47:19;;;;;;;;;;;;;;;30.10;31.06;99862.71;104600;1265;72815;-65
2023/06/10 11:49:50;;;;;;;;;;;;;;;30.10;31.31;99862.94;104583;1265;61390;-70
2023/06/10 11:52:18;;;;;;;;;;;;;;;30.06;31.63;99863.09;104490;1265;61266;-64
2023/06/10 11:54:52;;;;;;;;;;;;;;;30.03;32.09;99857.98;104376;1270;74966;-64
2023/06/10 11:57:20;;;;;;;;;;;;;;;30.09;31.70;99859.23;104565;1269;65646;-69
2023/06/10 11:59:46;;;;;;;;;;;;;;;30.16;30.79;99853.38;104504;1269;71469;-65
2023/06/10 12:02:17;;;;;;;;;;;;;;;30.26;31.47;99853.25;104601;1270;61277;-67
2023/06/10 12:04:44;;;;;;;;;;;;;;;30.39;31.20;99847.57;104395;1265;61370;-65
2023/06/10 12:07:16;;;;;;;;;;;;;;;30.49;30.78;99844.36;104589;1265;74544;-65
2023/06/10 12:09:43;;;;;;;;;;;;;;;30.54;30.91;99846.01;104349;1265;68311;-65
2023/06/10 12:12:11;;;;;;;;;;;;;;;30.52;30.92;99845.70;104647;1271;72508;-70
2023/06/10 12:14:54;;;;;;;;;;;;;;;30.44;29.90;99841.89;104594;1266;61655;-67
2023/06/10 12:17:22;;;;;;;;;;;;;;;30.37;29.64;99836.45;104621;1266;61264;-67
2023/06/10 12:19:50;;;;;;;;;;;;;;;30.27;29.62;99835.61;104778;1265;75031;-74
2023/06/10 12:22:19;;;;;;;;;;;;;;;30.05;29.56;99836.09;104585;1266;66994;-67
2023/06/10 12:25:09;;;;;;;;;;;;;;;29.84;30.21;99827.48;104612;1270;72742;-67
2023/06/10 12:27:37;;;;;;;;;;;;;;;29.72;31.41;99819.35;104418;1269;61347;-69
2023/06/10 12:30:07;;;;;;;;;;;;;;;29.72;31.68;99816.19;104563;1265;61367;-65
2023/06/10 12:32:45;;;;;;;;;;;;;;;29.72;31.12;99815.59;104324;1266;74749;-71
2023/06/10 12:35:12;;;;;;;;;;;;;;;29.70;31.68;99814.57;104645;1270;66059;-67